sensor_id;sensor_type;location;lat;lon;timestamp;pressure;altitude;pressure_sealevel;temperature;humidity
39243;BME280;29823;47.404;8.566;2023-04-16T00:01:39;96466.88;;;7.73;100.00
39243;BME280;29823;47.404;8.566;2023-04-16T00:04:07;96468.31;;;7.69;100.00
39243;BME280;29823;47.404;8.566;2023-04-16T00:06:35;96468.38;;;7.56;100.00
39243;BME280;29823;47.404;8.566;2023-04-16T00:09:03;96457.72;;;7.63;100.00
39243;BME280;29823;47.404;8.566;2023-04-16T00:11:31;96449.53;;;7.64;100.00
39243;BME280;29823;47.404;8.566;2023-04-16T00:13:58;96454.84;;;7.64;100.00
39243;BME280;29823;47.404;8.566;2023-04-16T00:16:26;96443.03;;;7.54;100.00
39243;BME280;29823;47.404;8.566;2023-04-16T00:18:56;96463.38;;;7.73;100.00
39243;BME280;29823;47.404;8.566;2023-04-16T00:21:23;96469.94;;;7.70;100.00
39243;BME280;29823;47.404;8.566;2023-04-16T00:23:51;96471.59;;;7.65;100.00
39243;BME280;29823;47.404;8.566;2023-04-16T00:26:19;96471.00;;;7.63;100.00
39243;BME280;29823;47.404;8.566;2023-04-16T00:28:47;96468.34;;;7.63;100.00
39243;BME280;29823;47.404;8.566;2023-04-16T00:31:14;96468.38;;;7.56;100.00
39243;BME280;29823;47.404;8.566;2023-04-16T00:33:42;96474.13;;;7.60;100.00
39243;BME280;29823;47.404;8.566;2023-04-16T00:36:11;96473.44;;;7.71;100.00
39243;BME280;29823;47.404;8.566;2023-04-16T00:38:39;96470.44;;;7.61;100.00
39243;BME280;29823;47.404;8.566;2023-04-16T00:41:07;96473.72;;;7.56;100.00
39243;BME280;29823;47.404;8.566;2023-04-16T00:43:35;96463.06;;;7.56;100.00
39243;BME280;29823;47.404;8.566;2023-04-16T00:46:04;96466.06;;;7.66;100.00
39243;BME280;29823;47.404;8.566;2023-04-16T00:48:32;96474.88;;;7.67;100.00
39243;BME280;29823;47.404;8.566;2023-04-16T00:51:03;96478.13;;;7.69;100.00
39243;BME280;29823;47.404;8.566;2023-04-16T00:53:33;96470.81;;;7.64;100.00
39243;BME280;29823;47.404;8.566;2023-04-16T00:56:02;96468.56;;;7.61;100.00
39243;BME280;29823;47.404;8.566;2023-04-16T00:58:30;96472.84;;;7.62;100.00
39243;BME280;29823;47.404;8.566;2023-04-16T01:00:58;96482.66;;;7.68;100.00
39243;BME280;29823;47.404;8.566;2023-04-16T01:03:33;96456.13;;;7.55;100.00
39243;BME280;29823;47.404;8.566;2023-04-16T01:06:04;96476.53;;;7.61;100.00
39243;BME280;29823;47.404;8.566;2023-04-16T01:08:34;96458.22;;;7.47;100.00
39243;BME280;29823;47.404;8.566;2023-04-16T01:11:02;96481.44;;;7.64;100.00
39243;BME280;29823;47.404;8.566;2023-04-16T01:13:32;96481.69;;;7.56;100.00
39243;BME280;29823;47.404;8.566;2023-04-16T01:16:00;96478.16;;;7.62;100.00
39243;BME280;29823;47.404;8.566;2023-04-16T01:18:27;96480.69;;;7.57;100.00
39243;BME280;29823;47.404;8.566;2023-04-16T01:20:57;96482.91;;;7.60;100.00
39243;BME280;29823;47.404;8.566;2023-04-16T01:23:25;96481.88;;;7.61;100.00
39243;BME280;29823;47.404;8.566;2023-04-16T01:25:52;96471.22;;;7.61;100.00
39243;BME280;29823;47.404;8.566;2023-04-16T01:28:20;96479.44;;;7.60;100.00
39243;BME280;29823;47.404;8.566;2023-04-16T01:30:48;96480.69;;;7.57;100.00
39243;BME280;29823;47.404;8.566;2023-04-16T01:33:17;96481.88;;;7.61;100.00
39243;BME280;29823;47.404;8.566;2023-04-16T01:35:45;96483.06;;;7.65;100.00
39243;BME280;29823;47.404;8.566;2023-04-16T01:38:14;96489.84;;;7.61;100.00
39243;BME280;29823;47.404;8.566;2023-04-16T01:40:42;96490.50;;;7.57;100.00
39243;BME280;29823;47.404;8.566;2023-04-16T01:43:09;96492.16;;;7.51;100.00
39243;BME280;29823;47.404;8.566;2023-04-16T01:45:37;96493.97;;;7.57;100.00
39243;BME280;29823;47.404;8.566;2023-04-16T01:48:05;96499.91;;;7.59;100.00
39243;BME280;29823;47.404;8.566;2023-04-16T01:50:33;96500.31;;;7.56;100.00
39243;BME280;29823;47.404;8.566;2023-04-16T01:53:01;96503.59;;;7.58;100.00
39243;BME280;29823;47.404;8.566;2023-04-16T01:55:32;96483.19;;;7.46;100.00
39243;BME280;29823;47.404;8.566;2023-04-16T01:58:00;96494.78;;;7.58;100.00
39243;BME280;29823;47.404;8.566;2023-04-16T02:00:28;96499.88;;;7.66;100.00
39243;BME280;29823;47.404;8.566;2023-04-16T02:02:56;96505.22;;;7.59;100.00
39243;BME280;29823;47.404;8.566;2023-04-16T02:05:24;96509.72;;;7.59;100.00
39243;BME280;29823;47.404;8.566;2023-04-16T02:07:52;96508.09;;;7.58;100.00
39243;BME280;29823;47.404;8.566;2023-04-16T02:10:20;96515.41;;;7.62;100.00
39243;BME280;29823;47.404;8.566;2023-04-16T02:12:50;96510.50;;;7.66;100.00
39243;BME280;29823;47.404;8.566;2023-04-16T02:15:18;96508.47;;;7.61;100.00
39243;BME280;29823;47.404;8.566;2023-04-16T02:17:45;96511.38;;;7.60;100.00
39243;BME280;29823;47.404;8.566;2023-04-16T02:20:14;96512.16;;;7.60;100.00
39243;BME280;29823;47.404;8.566;2023-04-16T02:22:43;96495.44;;;7.53;100.00
39243;BME280;29823;47.404;8.566;2023-04-16T02:25:11;96504.78;;;7.62;100.00
39243;BME280;29823;47.404;8.566;2023-04-16T02:27:39;96516.50;;;7.55;100.00
39243;BME280;29823;47.404;8.566;2023-04-16T02:30:10;96514.44;;;7.57;100.00
39243;BME280;29823;47.404;8.566;2023-04-16T02:32:37;96508.09;;;7.58;100.00
39243;BME280;29823;47.404;8.566;2023-04-16T02:35:06;96512.16;;;7.60;100.00
39243;BME280;29823;47.404;8.566;2023-04-16T02:37:34;96507.72;;;7.48;100.00
39243;BME280;29823;47.404;8.566;2023-04-16T02:40:02;96517.13;;;7.50;100.00
39243;BME280;29823;47.404;8.566;2023-04-16T02:42:30;96522.44;;;7.50;100.00
39243;BME280;29823;47.404;8.566;2023-04-16T02:44:57;96515.09;;;7.52;100.00
39243;BME280;29823;47.404;8.566;2023-04-16T02:47:27;96513.28;;;7.46;100.00
39243;BME280;29823;47.404;8.566;2023-04-16T02:49:54;96517.94;;;7.51;100.00
39243;BME280;29823;47.404;8.566;2023-04-16T02:52:22;96520.81;;;7.49;100.00
39243;BME280;29823;47.404;8.566;2023-04-16T02:54:50;96519.66;;;7.39;100.00
39243;BME280;29823;47.404;8.566;2023-04-16T02:57:18;96509.81;;;7.39;100.00
39243;BME280;29823;47.404;8.566;2023-04-16T02:59:46;96512.25;;;7.47;100.00
39243;BME280;29823;47.404;8.566;2023-04-16T03:02:14;96515.09;;;7.52;100.00
39243;BME280;29823;47.404;8.566;2023-04-16T03:04:44;96517.94;;;7.51;100.00
39243;BME280;29823;47.404;8.566;2023-04-16T03:07:12;96511.22;;;7.48;100.00
39243;BME280;29823;47.404;8.566;2023-04-16T03:09:40;96518.94;;;7.56;100.00
39243;BME280;29823;47.404;8.566;2023-04-16T03:12:08;96483.28;;;7.26;100.00
39243;BME280;29823;47.404;8.566;2023-04-16T03:14:36;96519.59;;;7.45;100.00
39243;BME280;29823;47.404;8.566;2023-04-16T03:17:03;96512.84;;;7.49;100.00
39243;BME280;29823;47.404;8.566;2023-04-16T03:19:31;96515.09;;;7.52;100.00
39243;BME280;29823;47.404;8.566;2023-04-16T03:22:01;96515.69;;;7.48;100.00
39243;BME280;29823;47.404;8.566;2023-04-16T03:24:29;96519.84;;;7.44;100.00
39243;BME280;29823;47.404;8.566;2023-04-16T03:26:56;96522.50;;;7.44;100.00
39243;BME280;29823;47.404;8.566;2023-04-16T03:29:25;96519.66;;;7.32;100.00
39243;BME280;29823;47.404;8.566;2023-04-16T03:31:53;96520.84;;;7.43;100.00
39243;BME280;29823;47.404;8.566;2023-04-16T03:34:20;96522.88;;;7.47;100.00
39243;BME280;29823;47.404;8.566;2023-04-16T03:36:48;96522.66;;;7.49;100.00
39243;BME280;29823;47.404;8.566;2023-04-16T03:39:17;96514.72;;;7.42;100.00
39243;BME280;29823;47.404;8.566;2023-04-16T03:41:45;96526.34;;;7.48;100.00
39243;BME280;29823;47.404;8.566;2023-04-16T03:44:13;96533.53;;;7.47;100.00
39243;BME280;29823;47.404;8.566;2023-04-16T03:46:40;96530.63;;;7.49;100.00
39243;BME280;29823;47.404;8.566;2023-04-16T03:49:08;96529.38;;;7.51;100.00
39243;BME280;29823;47.404;8.566;2023-04-16T03:51:37;96529.00;;;7.48;100.00
39243;BME280;29823;47.404;8.566;2023-04-16T03:54:04;96529.19;;;7.53;100.00
39243;BME280;29823;47.404;8.566;2023-04-16T03:56:34;96514.50;;;7.44;100.00
39243;BME280;29823;47.404;8.566;2023-04-16T03:59:02;96517.38;;;7.42;100.00
39243;BME280;29823;47.404;8.566;2023-04-16T04:01:29;96515.59;;;7.30;100.00
39243;BME280;29823;47.404;8.566;2023-04-16T04:03:57;96531.47;;;7.49;100.00
39243;BME280;29823;47.404;8.566;2023-04-16T04:06:26;96528.69;;;7.31;100.00
39243;BME280;29823;47.404;8.566;2023-04-16T04:08:54;96540.88;;;7.45;100.00
39243;BME280;29823;47.404;8.566;2023-04-16T04:11:21;96534.38;;;7.41;100.00
39243;BME280;29823;47.404;8.566;2023-04-16T04:13:51;96529.84;;;7.48;100.00
39243;BME280;29823;47.404;8.566;2023-04-16T04:16:19;96526.56;;;7.46;100.00
39243;BME280;29823;47.404;8.566;2023-04-16T04:18:46;96537.22;;;7.46;100.00
39243;BME280;29823;47.404;8.566;2023-04-16T04:21:14;96527.00;;;7.43;100.00
39243;BME280;29823;47.404;8.566;2023-04-16T04:23:42;96527.00;;;7.43;100.00
39243;BME280;29823;47.404;8.566;2023-04-16T04:26:10;96525.56;;;7.41;100.00
39243;BME280;29823;47.404;8.566;2023-04-16T04:28:38;96507.81;;;7.28;100.00
39243;BME280;29823;47.404;8.566;2023-04-16T04:31:07;96528.63;;;7.38;100.00
39243;BME280;29823;47.404;8.566;2023-04-16T04:33:35;96534.75;;;7.45;100.00
39243;BME280;29823;47.404;8.566;2023-04-16T04:36:03;96543.53;;;7.45;100.00
39243;BME280;29823;47.404;8.566;2023-04-16T04:38:31;96515.19;;;7.26;100.00
39243;BME280;29823;47.404;8.566;2023-04-16T04:40:58;96540.44;;;7.55;100.00
39243;BME280;29823;47.404;8.566;2023-04-16T04:43:26;96543.78;;;7.44;100.00
39243;BME280;29823;47.404;8.566;2023-04-16T04:45:54;96551.53;;;7.45;100.00
39243;BME280;29823;47.404;8.566;2023-04-16T04:48:24;96548.66;;;7.40;100.00
39243;BME280;29823;47.404;8.566;2023-04-16T04:50:53;96555.22;;;7.44;100.00
39243;BME280;29823;47.404;8.566;2023-04-16T04:53:20;96559.69;;;7.50;100.00
39243;BME280;29823;47.404;8.566;2023-04-16T04:55:48;96548.66;;;7.40;100.00
39243;BME280;29823;47.404;8.566;2023-04-16T04:58:22;96561.31;;;7.51;100.00
39243;BME280;29823;47.404;8.566;2023-04-16T05:00:50;96567.72;;;7.37;100.00
39243;BME280;29823;47.404;8.566;2023-04-16T05:03:19;96563.31;;;7.62;100.00
39243;BME280;29823;47.404;8.566;2023-04-16T05:05:49;96568.03;;;7.67;100.00
39243;BME280;29823;47.404;8.566;2023-04-16T05:08:16;96563.81;;;7.46;100.00
39243;BME280;29823;47.404;8.566;2023-04-16T05:10:44;96565.84;;;7.51;100.00
39243;BME280;29823;47.404;8.566;2023-04-16T05:13:12;96568.28;;;7.52;100.00
39243;BME280;29823;47.404;8.566;2023-04-16T05:15:40;96567.84;;;7.55;100.00
39243;BME280;29823;47.404;8.566;2023-04-16T05:18:08;96580.09;;;7.63;100.00
39243;BME280;29823;47.404;8.566;2023-04-16T05:20:35;96577.25;;;7.64;100.00
39243;BME280;29823;47.404;8.566;2023-04-16T05:23:05;96557.66;;;7.52;100.00
39243;BME280;29823;47.404;8.566;2023-04-16T05:25:33;96580.47;;;7.73;100.00
39243;BME280;29823;47.404;8.566;2023-04-16T05:28:01;96573.31;;;7.73;100.00
39243;BME280;29823;47.404;8.566;2023-04-16T05:30:29;96577.63;;;7.68;100.00
39243;BME280;29823;47.404;8.566;2023-04-16T05:32:57;96583.34;;;7.71;100.00
39243;BME280;29823;47.404;8.566;2023-04-16T05:35:25;96577.22;;;7.71;100.00
39243;BME280;29823;47.404;8.566;2023-04-16T05:37:53;96585.97;;;7.84;100.00
39243;BME280;29823;47.404;8.566;2023-04-16T05:40:22;96585.72;;;7.86;100.00
39243;BME280;29823;47.404;8.566;2023-04-16T05:42:50;96590.44;;;7.90;100.00
39243;BME280;29823;47.404;8.566;2023-04-16T05:45:18;96584.47;;;7.88;100.00
39243;BME280;29823;47.404;8.566;2023-04-16T05:47:46;96595.38;;;7.87;100.00
39243;BME280;29823;47.404;8.566;2023-04-16T05:50:14;96589.63;;;7.83;100.00
39243;BME280;29823;47.404;8.566;2023-04-16T05:52:42;96593.94;;;7.84;100.00
39243;BME280;29823;47.404;8.566;2023-04-16T05:55:10;96585.81;;;7.73;100.00
39243;BME280;29823;47.404;8.566;2023-04-16T05:57:39;96587.88;;;7.64;100.00
39243;BME280;29823;47.404;8.566;2023-04-16T06:00:08;96596.66;;;7.65;100.00
39243;BME280;29823;47.404;8.566;2023-04-16T06:02:35;96605.84;;;7.75;100.00
39243;BME280;29823;47.404;8.566;2023-04-16T06:05:04;96606.25;;;7.72;100.00
39243;BME280;29823;47.404;8.566;2023-04-16T06:07:32;96609.94;;;7.71;100.00
39243;BME280;29823;47.404;8.566;2023-04-16T06:10:00;96614.25;;;7.72;100.00
39243;BME280;29823;47.404;8.566;2023-04-16T06:12:27;96609.53;;;7.74;100.00
39243;BME280;29823;47.404;8.566;2023-04-16T06:14:58;96604.16;;;7.81;100.00
39243;BME280;29823;47.404;8.566;2023-04-16T06:17:26;96605.78;;;7.88;100.00
39243;BME280;29823;47.404;8.566;2023-04-16T06:19:54;96610.25;;;7.94;100.00
39243;BME280;29823;47.404;8.566;2023-04-16T06:22:23;96607.47;;;7.83;100.00
39243;BME280;29823;47.404;8.566;2023-04-16T06:24:51;96610.53;;;7.80;100.00
39243;BME280;29823;47.404;8.566;2023-04-16T06:27:19;96618.91;;;7.83;100.00
39243;BME280;29823;47.404;8.566;2023-04-16T06:29:47;96619.31;;;7.87;100.00
39243;BME280;29823;47.404;8.566;2023-04-16T06:32:16;96620.13;;;7.87;100.00
39243;BME280;29823;47.404;8.566;2023-04-16T06:34:44;96614.00;;;7.87;100.00
39243;BME280;29823;47.404;8.566;2023-04-16T06:37:12;96628.09;;;7.87;100.00
39243;BME280;29823;47.404;8.566;2023-04-16T06:39:39;96625.88;;;7.84;100.00
39243;BME280;29823;47.404;8.566;2023-04-16T06:42:07;96621.31;;;7.98;100.00
39243;BME280;29823;47.404;8.566;2023-04-16T06:44:35;96621.94;;;7.93;100.00
39243;BME280;29823;47.404;8.566;2023-04-16T06:47:03;96627.44;;;7.98;100.00
39243;BME280;29823;47.404;8.566;2023-04-16T06:49:32;96630.09;;;7.98;100.00
39243;BME280;29823;47.404;8.566;2023-04-16T06:52:00;96624.97;;;7.97;100.00
39243;BME280;29823;47.404;8.566;2023-04-16T06:54:31;96637.69;;;8.01;100.00
39243;BME280;29823;47.404;8.566;2023-04-16T06:56:59;96627.47;;;7.92;100.00
39243;BME280;29823;47.404;8.566;2023-04-16T06:59:26;96631.91;;;8.04;100.00
39243;BME280;29823;47.404;8.566;2023-04-16T07:01:55;96636.94;;;7.88;100.00
39243;BME280;29823;47.404;8.566;2023-04-16T07:04:23;96632.16;;;7.96;100.00
39243;BME280;29823;47.404;8.566;2023-04-16T07:06:53;96618.06;;;7.89;100.00
39243;BME280;29823;47.404;8.566;2023-04-16T07:09:20;96634.88;;;7.83;100.00
39243;BME280;29823;47.404;8.566;2023-04-16T07:11:48;96627.72;;;7.84;100.00
39243;BME280;29823;47.404;8.566;2023-04-16T07:14:16;96643.84;;;7.95;100.00
39243;BME280;29823;47.404;8.566;2023-04-16T07:16:44;96645.41;;;8.09;100.00
39243;BME280;29823;47.404;8.566;2023-04-16T07:19:12;96634.78;;;8.03;100.00
39243;BME280;29823;47.404;8.566;2023-04-16T07:21:40;96637.03;;;8.06;100.00
39243;BME280;29823;47.404;8.566;2023-04-16T07:24:10;96629.50;;;7.96;100.00
39243;BME280;29823;47.404;8.566;2023-04-16T07:26:38;96638.53;;;7.95;100.00
39243;BME280;29823;47.404;8.566;2023-04-16T07:29:06;96635.59;;;8.03;100.00
39243;BME280;29823;47.404;8.566;2023-04-16T07:31:34;96629.25;;;8.04;100.00
39243;BME280;29823;47.404;8.566;2023-04-16T07:34:02;96639.78;;;7.93;100.00
39243;BME280;29823;47.404;8.566;2023-04-16T07:36:30;96645.41;;;8.09;100.00
39243;BME280;29823;47.404;8.566;2023-04-16T07:38:58;96637.88;;;8.06;100.00
39243;BME280;29823;47.404;8.566;2023-04-16T07:41:27;96649.47;;;8.18;100.00
39243;BME280;29823;47.404;8.566;2023-04-16T07:43:55;96653.56;;;8.14;100.00
39243;BME280;29823;47.404;8.566;2023-04-16T07:46:23;96651.09;;;8.26;100.00
39243;BME280;29823;47.404;8.566;2023-04-16T07:49:01;96644.94;;;8.19;100.00
39243;BME280;29823;47.404;8.566;2023-04-16T07:51:29;96646.63;;;8.20;100.00
39243;BME280;29823;47.404;8.566;2023-04-16T07:53:57;96650.66;;;8.29;100.00
39243;BME280;29823;47.404;8.566;2023-04-16T07:56:26;96649.94;;;8.09;100.00
39243;BME280;29823;47.404;8.566;2023-04-16T07:58:54;96672.81;;;8.29;100.00
39243;BME280;29823;47.404;8.566;2023-04-16T08:01:28;96649.09;;;8.08;100.00
39243;BME280;29823;47.404;8.566;2023-04-16T08:03:56;96659.72;;;8.21;100.00
39243;BME280;29823;47.404;8.566;2023-04-16T08:06:24;96665.41;;;8.31;100.00
39243;BME280;29823;47.404;8.566;2023-04-16T08:08:52;96662.56;;;8.26;100.00
39243;BME280;29823;47.404;8.566;2023-04-16T08:11:20;96665.41;;;8.31;100.00
39243;BME280;29823;47.404;8.566;2023-04-16T08:13:50;96668.22;;;8.43;100.00
39243;BME280;29823;47.404;8.566;2023-04-16T08:16:17;96673.84;;;8.28;100.00
39243;BME280;29823;47.404;8.566;2023-04-16T08:18:45;96678.31;;;8.34;100.00
39243;BME280;29823;47.404;8.566;2023-04-16T08:21:13;96683.63;;;8.34;100.00
39243;BME280;29823;47.404;8.566;2023-04-16T08:23:41;96680.31;;;8.39;100.00
39243;BME280;29823;47.404;8.566;2023-04-16T08:26:09;96655.22;;;8.15;100.00
39243;BME280;29823;47.404;8.566;2023-04-16T08:28:37;96622.28;;;8.03;100.00
39243;BME280;29823;47.404;8.566;2023-04-16T08:31:06;96670.31;;;8.34;100.00
39243;BME280;29823;47.404;8.566;2023-04-16T08:33:34;96670.53;;;8.26;100.00
39243;BME280;29823;47.404;8.566;2023-04-16T08:36:01;96679.66;;;8.50;100.00
39243;BME280;29823;47.404;8.566;2023-04-16T08:38:29;96684.72;;;8.58;100.00
39243;BME280;29823;47.404;8.566;2023-04-16T08:41:02;96675.44;;;8.36;100.00
39243;BME280;29823;47.404;8.566;2023-04-16T08:43:32;96686.31;;;8.65;100.00
39243;BME280;29823;47.404;8.566;2023-04-16T08:46:02;96681.09;;;8.46;100.00
39243;BME280;29823;47.404;8.566;2023-04-16T08:48:33;96684.94;;;8.56;100.00
39243;BME280;29823;47.404;8.566;2023-04-16T08:51:02;96674.91;;;8.21;100.00
39243;BME280;29823;47.404;8.566;2023-04-16T08:53:35;96680.09;;;8.47;100.00
39243;BME280;29823;47.404;8.566;2023-04-16T08:56:04;96691.91;;;8.57;100.00
39243;BME280;29823;47.404;8.566;2023-04-16T08:58:36;96687.22;;;8.53;100.00
39243;BME280;29823;47.404;8.566;2023-04-16T09:01:08;96690.41;;;8.68;100.00
39243;BME280;29823;47.404;8.566;2023-04-16T09:03:38;96691.03;;;8.63;100.00
39243;BME280;29823;47.404;8.566;2023-04-16T09:06:06;96698.81;;;8.65;100.00
39243;BME280;29823;47.404;8.566;2023-04-16T09:08:34;96700.16;;;8.80;100.00
39243;BME280;29823;47.404;8.566;2023-04-16T09:11:03;96700.38;;;8.79;100.00
39243;BME280;29823;47.404;8.566;2023-04-16T09:13:31;96700.78;;;8.82;100.00
39243;BME280;29823;47.404;8.566;2023-04-16T09:15:59;96693.41;;;8.78;100.00
39243;BME280;29823;47.404;8.566;2023-04-16T09:18:27;96710.09;;;8.98;100.00
39243;BME280;29823;47.404;8.566;2023-04-16T09:20:56;96711.09;;;8.72;100.00
39243;BME280;29823;47.404;8.566;2023-04-16T09:23:24;96697.19;;;8.26;100.00
39243;BME280;29823;47.404;8.566;2023-04-16T09:25:52;96710.31;;;8.65;100.00
39243;BME280;29823;47.404;8.566;2023-04-16T09:28:40;96709.88;;;8.99;100.00
39243;BME280;29823;47.404;8.566;2023-04-16T09:31:10;96710.41;;;8.83;100.00
39243;BME280;29823;47.404;8.566;2023-04-16T09:33:39;96702.69;;;8.31;100.00
39243;BME280;29823;47.404;8.566;2023-04-16T09:36:09;96694.69;;;8.38;100.00
39243;BME280;29823;47.404;8.566;2023-04-16T09:38:47;96706.94;;;8.45;100.00
39243;BME280;29823;47.404;8.566;2023-04-16T09:41:15;96720.34;;;8.63;100.00
39243;BME280;29823;47.404;8.566;2023-04-16T09:43:53;96721.72;;;8.79;100.00
39243;BME280;29823;47.404;8.566;2023-04-16T09:46:23;96727.03;;;8.79;100.00
39243;BME280;29823;47.404;8.566;2023-04-16T09:48:51;96726.50;;;8.64;100.00
39243;BME280;29823;47.404;8.566;2023-04-16T09:51:21;96720.00;;;8.53;100.00
39243;BME280;29823;47.404;8.566;2023-04-16T09:53:50;96733.69;;;8.63;100.00
39243;BME280;29823;47.404;8.566;2023-04-16T09:56:23;96703.38;;;8.58;100.00
39243;BME280;29823;47.404;8.566;2023-04-16T09:58:55;96718.94;;;8.92;100.00
39243;BME280;29823;47.404;8.566;2023-04-16T10:01:24;96730.75;;;9.02;100.00
39243;BME280;29823;47.404;8.566;2023-04-16T10:03:53;96731.28;;;8.86;100.00
39243;BME280;29823;47.404;8.566;2023-04-16T10:06:23;96720.41;;;8.57;100.00
39243;BME280;29823;47.404;8.566;2023-04-16T10:08:53;96730.84;;;8.58;100.00
39243;BME280;29823;47.404;8.566;2023-04-16T10:11:22;96719.50;;;8.69;100.00
39243;BME280;29823;47.404;8.566;2023-04-16T10:13:50;96738.84;;;8.89;100.00
39243;BME280;29823;47.404;8.566;2023-04-16T10:16:18;96741.19;;;9.10;100.00
39243;BME280;29823;47.404;8.566;2023-04-16T10:18:46;96745.25;;;9.13;100.00
39243;BME280;29823;47.404;8.566;2023-04-16T10:21:14;96748.31;;;8.85;100.00
39243;BME280;29823;47.404;8.566;2023-04-16T10:23:43;96736.47;;;8.81;100.00
39243;BME280;29823;47.404;8.566;2023-04-16T10:26:12;96727.38;;;9.13;100.00
39243;BME280;29823;47.404;8.566;2023-04-16T10:28:40;96737.75;;;9.28;100.00
39243;BME280;29823;47.404;8.566;2023-04-16T10:31:08;96732.59;;;9.08;100.00
39243;BME280;29823;47.404;8.566;2023-04-16T10:33:39;96733.50;;;9.45;100.00
39243;BME280;29823;47.404;8.566;2023-04-16T10:36:09;96730.34;;;9.72;100.00
39243;BME280;29823;47.404;8.566;2023-04-16T10:38:38;96730.97;;;9.92;100.00
39243;BME280;29823;47.404;8.566;2023-04-16T10:41:07;96740.53;;;10.24;100.00
39243;BME280;29823;47.404;8.566;2023-04-16T10:43:40;96734.84;;;10.50;100.00
39243;BME280;29823;47.404;8.566;2023-04-16T10:46:21;96730.28;;;10.69;100.00
39243;BME280;29823;47.404;8.566;2023-04-16T10:48:51;96718.75;;;10.57;100.00
39243;BME280;29823;47.404;8.566;2023-04-16T10:51:27;96723.19;;;10.63;100.00
39243;BME280;29823;47.404;8.566;2023-04-16T10:53:56;96722.06;;;10.70;100.00
39243;BME280;29823;47.404;8.566;2023-04-16T10:56:25;96724.31;;;10.96;100.00
39243;BME280;29823;47.404;8.566;2023-04-16T10:58:53;96717.34;;;10.95;100.00
39243;BME280;29823;47.404;8.566;2023-04-16T11:01:29;96721.34;;;11.04;100.00
39243;BME280;29823;47.404;8.566;2023-04-16T11:03:58;96718.69;;;10.75;100.00
39243;BME280;29823;47.404;8.566;2023-04-16T11:06:29;96726.94;;;10.73;100.00
39243;BME280;29823;47.404;8.566;2023-04-16T11:08:58;96734.31;;;10.89;100.00
39243;BME280;29823;47.404;8.566;2023-04-16T11:11:36;96719.72;;;10.44;100.00
39243;BME280;29823;47.404;8.566;2023-04-16T11:14:05;96702.84;;;10.73;100.00
39243;BME280;29823;47.404;8.566;2023-04-16T11:16:34;96728.81;;;10.84;100.00
39243;BME280;29823;47.404;8.566;2023-04-16T11:19:02;96710.38;;;10.94;100.00
39243;BME280;29823;47.404;8.566;2023-04-16T11:21:30;96736.34;;;10.46;100.00
39243;BME280;29823;47.404;8.566;2023-04-16T11:23:58;96729.19;;;10.58;100.00
39243;BME280;29823;47.404;8.566;2023-04-16T11:26:27;96734.50;;;10.47;100.00
39243;BME280;29823;47.404;8.566;2023-04-16T11:28:56;96737.47;;;10.39;100.00
39243;BME280;29823;47.404;8.566;2023-04-16T11:31:25;96741.41;;;10.36;100.00
39243;BME280;29823;47.404;8.566;2023-04-16T11:33:54;96743.03;;;10.55;100.00
39243;BME280;29823;47.404;8.566;2023-04-16T11:36:23;96734.78;;;10.57;100.00
39243;BME280;29823;47.404;8.566;2023-04-16T11:39:00;96734.56;;;10.40;100.00
39243;BME280;29823;47.404;8.566;2023-04-16T11:41:30;96728.59;;;10.56;100.00
39243;BME280;29823;47.404;8.566;2023-04-16T11:43:57;96731.31;;;10.38;100.00
39243;BME280;29823;47.404;8.566;2023-04-16T11:46:37;96729.91;;;10.18;100.00
39243;BME280;29823;47.404;8.566;2023-04-16T11:49:05;96739.09;;;10.40;100.00
39243;BME280;29823;47.404;8.566;2023-04-16T11:51:38;96742.28;;;10.30;100.00
39243;BME280;29823;47.404;8.566;2023-04-16T11:54:06;96728.63;;;10.02;100.00
39243;BME280;29823;47.404;8.566;2023-04-16T11:56:44;96742.59;;;10.40;100.00
39243;BME280;29823;47.404;8.566;2023-04-16T11:59:14;96737.06;;;10.53;100.00
39243;BME280;29823;47.404;8.566;2023-04-16T12:01:45;96748.97;;;10.39;100.00
39243;BME280;29823;47.404;8.566;2023-04-16T12:04:14;96728.22;;;10.05;100.00
39243;BME280;29823;47.404;8.566;2023-04-16T12:07:04;96752.09;;;10.18;100.00
39243;BME280;29823;47.404;8.566;2023-04-16T12:09:32;96739.16;;;10.15;100.00
39243;BME280;29823;47.404;8.566;2023-04-16T12:12:23;96750.16;;;10.07;100.00
39243;BME280;29823;47.404;8.566;2023-04-16T12:14:52;96739.59;;;9.94;100.00
39243;BME280;29823;47.404;8.566;2023-04-16T12:17:22;96752.28;;;9.81;100.00
39243;BME280;29823;47.404;8.566;2023-04-16T12:19:51;96743.78;;;10.26;100.00
39243;BME280;29823;47.404;8.566;2023-04-16T12:22:28;96749.28;;;10.49;100.00
39243;BME280;29823;47.404;8.566;2023-04-16T12:25:00;96752.22;;;10.41;100.00
39243;BME280;29823;47.404;8.566;2023-04-16T12:27:48;96760.84;;;10.61;100.00
39243;BME280;29823;47.404;8.566;2023-04-16T12:30:21;96757.00;;;10.39;100.00
39243;BME280;29823;47.404;8.566;2023-04-16T12:32:50;96761.75;;;10.37;100.00
39243;BME280;29823;47.404;8.566;2023-04-16T12:35:29;96762.50;;;10.02;100.00
39243;BME280;29823;47.404;8.566;2023-04-16T12:37:57;96759.22;;;10.24;100.00
39243;BME280;29823;47.404;8.566;2023-04-16T12:40:25;96754.72;;;10.25;100.00
39243;BME280;29823;47.404;8.566;2023-04-16T12:42:55;96758.53;;;10.29;100.00
39243;BME280;29823;47.404;8.566;2023-04-16T12:45:23;96750.28;;;10.66;100.00
39243;BME280;29823;47.404;8.566;2023-04-16T12:47:51;96751.88;;;10.38;100.00
39243;BME280;29823;47.404;8.566;2023-04-16T12:50:19;96756.69;;;10.47;100.00
39243;BME280;29823;47.404;8.566;2023-04-16T12:52:47;96736.47;;;10.51;100.00
39243;BME280;29823;47.404;8.566;2023-04-16T12:55:15;96754.44;;;10.62;100.00
39243;BME280;29823;47.404;8.566;2023-04-16T12:57:43;96747.75;;;10.71;100.00
39243;BME280;29823;47.404;8.566;2023-04-16T13:00:16;96751.56;;;10.93;100.00
39243;BME280;29823;47.404;8.566;2023-04-16T13:02:43;96757.88;;;11.10;100.00
39243;BME280;29823;47.404;8.566;2023-04-16T13:05:11;96755.72;;;10.89;100.00
39243;BME280;29823;47.404;8.566;2023-04-16T13:07:42;96755.94;;;10.88;100.00